sensor_id;sensor_type;location;lat;lon;timestamp;pressure;altitude;pressure_sealevel;temperature;humidity
5053;BME280;2545;50.892;5.740;2023-06-22T00:00:51;55939.53;;;-142.21;49.97
5053;BME280;2545;50.892;5.740;2023-06-22T00:03:20;55951.31;;;-142.21;50.14
5053;BME280;2545;50.892;5.740;2023-06-22T00:05:47;55939.53;;;-142.21;50.40
5053;BME280;2545;50.892;5.740;2023-06-22T00:08:13;55945.41;;;-142.21;50.69
5053;BME280;2545;50.892;5.740;2023-06-22T00:10:38;56023.84;;;-142.21;50.15
5053;BME280;2545;50.892;5.740;2023-06-22T00:13:04;55902.28;;;-142.21;50.96
5053;BME280;2545;50.892;5.740;2023-06-22T00:15:30;55916.00;;;-142.21;50.83
5053;BME280;2545;50.892;5.740;2023-06-22T00:17:55;55912.09;;;-142.21;51.49
5053;BME280;2545;50.892;5.740;2023-06-22T00:20:22;55902.28;;;-142.21;51.01
5053;BME280;2545;50.892;5.740;2023-06-22T00:22:48;55900.31;;;-142.21;51.23
5053;BME280;2545;50.892;5.740;2023-06-22T00:25:13;55931.69;;;-142.21;51.61
5053;BME280;2545;50.892;5.740;2023-06-22T00:27:38;55929.75;;;-142.21;51.54
5053;BME280;2545;50.892;5.740;2023-06-22T00:30:04;55937.56;;;-142.21;51.20
5053;BME280;2545;50.892;5.740;2023-06-22T00:32:29;55945.41;;;-142.21;51.63
5053;BME280;2545;50.892;5.740;2023-06-22T00:34:55;55896.41;;;-142.21;50.82
5053;BME280;2545;50.892;5.740;2023-06-22T00:37:20;55900.31;;;-142.21;51.38
5053;BME280;2545;50.892;5.740;2023-06-22T00:39:51;55951.31;;;-142.21;51.33
5053;BME280;2545;50.892;5.740;2023-06-22T00:42:16;55925.81;;;-142.21;50.95
5053;BME280;2545;50.892;5.740;2023-06-22T00:44:42;55908.16;;;-142.21;50.97
5053;BME280;2545;50.892;5.740;2023-06-22T00:47:07;55957.19;;;-142.21;51.15
5053;BME280;2545;50.892;5.740;2023-06-22T00:49:32;55912.09;;;-142.21;51.99
5053;BME280;2545;50.892;5.740;2023-06-22T00:51:58;55937.56;;;-142.21;52.08
5053;BME280;2545;50.892;5.740;2023-06-22T00:54:24;55923.84;;;-142.21;51.53
5053;BME280;2545;50.892;5.740;2023-06-22T00:56:54;55978.75;;;-142.21;52.30
5053;BME280;2545;50.892;5.740;2023-06-22T00:59:21;55933.66;;;-142.21;53.66
5053;BME280;2545;50.892;5.740;2023-06-22T01:01:47;55923.84;;;-142.21;53.26
5053;BME280;2545;50.892;5.740;2023-06-22T01:04:12;55931.69;;;-142.21;52.64
5053;BME280;2545;50.892;5.740;2023-06-22T01:10:11;55927.78;;;-142.21;52.16
5053;BME280;2545;50.892;5.740;2023-06-22T01:12:43;55923.84;;;-142.21;51.74
5053;BME280;2545;50.892;5.740;2023-06-22T01:15:21;55916.00;;;-142.21;51.81
5053;BME280;2545;50.892;5.740;2023-06-22T01:17:49;55912.09;;;-142.21;51.80
5053;BME280;2545;50.892;5.740;2023-06-22T01:20:17;55921.91;;;-142.21;52.14
5053;BME280;2545;50.892;5.740;2023-06-22T01:25:47;55906.22;;;-142.21;51.60
5053;BME280;2545;50.892;5.740;2023-06-22T01:31:03;55959.16;;;-142.21;51.64
5053;BME280;2545;50.892;5.740;2023-06-22T01:33:33;55900.31;;;-142.21;52.52
5053;BME280;2545;50.892;5.740;2023-06-22T01:36:00;55919.94;;;-142.21;52.48
5053;BME280;2545;50.892;5.740;2023-06-22T01:38:26;55941.50;;;-142.21;53.15
5053;BME280;2545;50.892;5.740;2023-06-22T01:40:53;55961.09;;;-142.21;53.21
5053;BME280;2545;50.892;5.740;2023-06-22T01:43:21;55933.66;;;-142.21;54.13
5053;BME280;2545;50.892;5.740;2023-06-22T01:45:48;55951.31;;;-142.21;54.38
5053;BME280;2545;50.892;5.740;2023-06-22T01:48:14;55933.66;;;-142.21;54.69
5053;BME280;2545;50.892;5.740;2023-06-22T01:50:40;55951.31;;;-142.21;55.03
5053;BME280;2545;50.892;5.740;2023-06-22T01:53:06;55937.56;;;-142.21;54.96
5053;BME280;2545;50.892;5.740;2023-06-22T01:55:32;55947.38;;;-142.21;55.04
5053;BME280;2545;50.892;5.740;2023-06-22T01:57:57;55961.09;;;-142.21;55.29
5053;BME280;2545;50.892;5.740;2023-06-22T02:00:25;55929.75;;;-142.21;55.24
5053;BME280;2545;50.892;5.740;2023-06-22T02:02:54;55943.47;;;-142.21;55.45
5053;BME280;2545;50.892;5.740;2023-06-22T02:05:23;55947.38;;;-142.21;56.13
5053;BME280;2545;50.892;5.740;2023-06-22T02:08:15;55957.19;;;-142.21;56.61
5053;BME280;2545;50.892;5.740;2023-06-22T02:10:45;55927.78;;;-142.21;56.45
5053;BME280;2545;50.892;5.740;2023-06-22T02:13:12;55955.22;;;-142.21;57.06
5053;BME280;2545;50.892;5.740;2023-06-22T02:15:38;55939.53;;;-142.21;57.39
5053;BME280;2545;50.892;5.740;2023-06-22T02:18:04;55892.47;;;-142.21;58.14
5053;BME280;2545;50.892;5.740;2023-06-22T02:20:30;55939.53;;;-142.21;58.94
5053;BME280;2545;50.892;5.740;2023-06-22T02:22:55;55982.69;;;-142.21;58.53
5053;BME280;2545;50.892;5.740;2023-06-22T02:25:21;55986.59;;;-142.21;59.17
5053;BME280;2545;50.892;5.740;2023-06-22T02:27:46;55933.66;;;-142.21;59.14
5053;BME280;2545;50.892;5.740;2023-06-22T02:30:12;55963.06;;;-142.21;60.35
5053;BME280;2545;50.892;5.740;2023-06-22T02:32:37;55990.53;;;-142.21;60.56
5053;BME280;2545;50.892;5.740;2023-06-22T02:35:08;55939.53;;;-142.21;60.36
5053;BME280;2545;50.892;5.740;2023-06-22T02:37:35;55916.00;;;-142.21;60.50
5053;BME280;2545;50.892;5.740;2023-06-22T02:40:05;55951.31;;;-142.21;60.72
5053;BME280;2545;50.892;5.740;2023-06-22T02:42:32;55963.06;;;-142.21;61.24
5053;BME280;2545;50.892;5.740;2023-06-22T02:44:57;55947.38;;;-142.21;62.19
5053;BME280;2545;50.892;5.740;2023-06-22T02:47:22;55949.34;;;-142.21;63.43
5053;BME280;2545;50.892;5.740;2023-06-22T02:49:48;55923.84;;;-142.21;63.95
5053;BME280;2545;50.892;5.740;2023-06-22T02:52:13;55949.34;;;-142.21;64.79
5053;BME280;2545;50.892;5.740;2023-06-22T02:54:38;56010.13;;;-142.21;65.09
5053;BME280;2545;50.892;5.740;2023-06-22T02:57:04;56017.97;;;-142.21;65.17
5053;BME280;2545;50.892;5.740;2023-06-22T02:59:30;55953.25;;;-142.21;65.61
5053;BME280;2545;50.892;5.740;2023-06-22T03:01:55;55959.16;;;-142.21;65.72
5053;BME280;2545;50.892;5.740;2023-06-22T03:04:21;55951.31;;;-142.21;66.32
5053;BME280;2545;50.892;5.740;2023-06-22T03:06:46;55955.22;;;-142.21;66.32
5053;BME280;2545;50.892;5.740;2023-06-22T03:09:16;55943.47;;;-142.21;66.26
5053;BME280;2545;50.892;5.740;2023-06-22T03:11:42;55970.91;;;-142.21;67.05
5053;BME280;2545;50.892;5.740;2023-06-22T03:14:07;55963.06;;;-142.21;67.53
5053;BME280;2545;50.892;5.740;2023-06-22T03:16:33;55951.31;;;-142.21;68.25
5053;BME280;2545;50.892;5.740;2023-06-22T03:18:59;55986.59;;;-142.21;68.80
5053;BME280;2545;50.892;5.740;2023-06-22T03:21:28;55957.19;;;-142.21;68.68
5053;BME280;2545;50.892;5.740;2023-06-22T03:23:54;55961.09;;;-142.21;68.62
5053;BME280;2545;50.892;5.740;2023-06-22T03:26:19;55947.38;;;-142.21;68.63
5053;BME280;2545;50.892;5.740;2023-06-22T03:28:45;55961.09;;;-142.21;68.96
5053;BME280;2545;50.892;5.740;2023-06-22T03:31:10;55965.03;;;-142.21;68.92
5053;BME280;2545;50.892;5.740;2023-06-22T03:33:36;55998.38;;;-142.21;68.97
5053;BME280;2545;50.892;5.740;2023-06-22T03:36:02;55961.09;;;-142.21;69.84
5053;BME280;2545;50.892;5.740;2023-06-22T03:38:27;55990.53;;;-142.21;69.18
5053;BME280;2545;50.892;5.740;2023-06-22T03:40:52;55967.00;;;-142.21;69.20
5053;BME280;2545;50.892;5.740;2023-06-22T03:43:18;55947.38;;;-142.21;70.02
5053;BME280;2545;50.892;5.740;2023-06-22T03:45:43;55963.06;;;-142.21;69.29
5053;BME280;2545;50.892;5.740;2023-06-22T03:48:11;55957.19;;;-142.21;69.94
5053;BME280;2545;50.892;5.740;2023-06-22T03:50:36;55951.31;;;-142.21;69.66
5053;BME280;2545;50.892;5.740;2023-06-22T03:53:01;55965.03;;;-142.21;69.67
5053;BME280;2545;50.892;5.740;2023-06-22T03:55:27;55967.00;;;-142.21;69.88
5053;BME280;2545;50.892;5.740;2023-06-22T03:57:53;55970.91;;;-142.21;70.13
5053;BME280;2545;50.892;5.740;2023-06-22T04:00:22;56017.97;;;-142.21;70.62
5053;BME280;2545;50.892;5.740;2023-06-22T04:02:47;55986.59;;;-142.21;71.01
5053;BME280;2545;50.892;5.740;2023-06-22T04:05:12;56004.25;;;-142.21;70.66
5053;BME280;2545;50.892;5.740;2023-06-22T04:07:39;55925.81;;;-142.21;73.11
5053;BME280;2545;50.892;5.740;2023-06-22T04:10:04;55939.53;;;-142.21;73.68
5053;BME280;2545;50.892;5.740;2023-06-22T04:12:30;55939.53;;;-142.21;73.13
5053;BME280;2545;50.892;5.740;2023-06-22T04:14:55;55955.22;;;-142.21;73.45
5053;BME280;2545;50.892;5.740;2023-06-22T04:17:21;55955.22;;;-142.21;72.92
5053;BME280;2545;50.892;5.740;2023-06-22T04:19:46;55959.16;;;-142.21;72.03
5053;BME280;2545;50.892;5.740;2023-06-22T04:22:11;55974.84;;;-142.21;72.51
5053;BME280;2545;50.892;5.740;2023-06-22T04:24:37;55988.56;;;-142.21;72.42
5053;BME280;2545;50.892;5.740;2023-06-22T04:27:03;55959.16;;;-142.21;72.58
5053;BME280;2545;50.892;5.740;2023-06-22T04:29:31;55961.09;;;-142.21;73.41
5053;BME280;2545;50.892;5.740;2023-06-22T04:31:57;55970.91;;;-142.21;72.85
5053;BME280;2545;50.892;5.740;2023-06-22T04:34:28;55967.00;;;-142.21;74.77
5053;BME280;2545;50.892;5.740;2023-06-22T04:36:54;55974.84;;;-142.21;75.50
5053;BME280;2545;50.892;5.740;2023-06-22T04:39:20;55947.38;;;-142.21;75.37
5053;BME280;2545;50.892;5.740;2023-06-22T04:41:45;55978.75;;;-142.21;75.16
5053;BME280;2545;50.892;5.740;2023-06-22T04:44:15;56004.25;;;-142.21;73.96
5053;BME280;2545;50.892;5.740;2023-06-22T04:46:50;55951.31;;;-142.21;73.17
5053;BME280;2545;50.892;5.740;2023-06-22T04:49:20;55963.06;;;-142.21;74.90
5053;BME280;2545;50.892;5.740;2023-06-22T04:51:45;55955.22;;;-142.21;74.59
5053;BME280;2545;50.892;5.740;2023-06-22T04:54:10;55970.91;;;-142.21;76.25
5053;BME280;2545;50.892;5.740;2023-06-22T04:56:36;55959.16;;;-142.21;76.16
5053;BME280;2545;50.892;5.740;2023-06-22T04:59:02;55951.31;;;-142.21;81.07
5053;BME280;2545;50.892;5.740;2023-06-22T05:01:29;55941.50;;;-142.21;79.22
5053;BME280;2545;50.892;5.740;2023-06-22T05:03:56;55986.59;;;-142.21;82.15
5053;BME280;2545;50.892;5.740;2023-06-22T05:06:22;55976.78;;;-142.21;83.51
5053;BME280;2545;50.892;5.740;2023-06-22T05:08:52;56004.25;;;-142.21;85.86
5053;BME280;2545;50.892;5.740;2023-06-22T05:11:23;56006.22;;;-142.21;89.53
5053;BME280;2545;50.892;5.740;2023-06-22T05:13:48;55976.78;;;-142.21;88.82
5053;BME280;2545;50.892;5.740;2023-06-22T05:16:13;55968.94;;;-142.21;87.57
5053;BME280;2545;50.892;5.740;2023-06-22T05:18:39;56017.97;;;-142.21;86.33
5053;BME280;2545;50.892;5.740;2023-06-22T05:21:04;55984.63;;;-142.21;84.98
5053;BME280;2545;50.892;5.740;2023-06-22T05:23:30;55967.00;;;-142.21;85.06
5053;BME280;2545;50.892;5.740;2023-06-22T05:25:55;55986.59;;;-142.21;83.88
5053;BME280;2545;50.892;5.740;2023-06-22T05:28:22;55955.22;;;-142.21;83.68
5053;BME280;2545;50.892;5.740;2023-06-22T05:30:48;55980.72;;;-142.21;82.10
5053;BME280;2545;50.892;5.740;2023-06-22T05:33:13;56014.06;;;-142.21;82.93
5053;BME280;2545;50.892;5.740;2023-06-22T05:35:38;56006.22;;;-142.21;83.77
5053;BME280;2545;50.892;5.740;2023-06-22T05:38:04;55992.47;;;-142.21;85.80
5053;BME280;2545;50.892;5.740;2023-06-22T05:40:29;55976.78;;;-142.21;91.52
5053;BME280;2545;50.892;5.740;2023-06-22T05:42:54;55982.69;;;-142.21;93.09
5053;BME280;2545;50.892;5.740;2023-06-22T05:45:20;55980.72;;;-142.21;93.79
5053;BME280;2545;50.892;5.740;2023-06-22T05:47:45;56002.28;;;-142.21;93.71
5053;BME280;2545;50.892;5.740;2023-06-22T05:50:10;56006.22;;;-142.21;94.57
5053;BME280;2545;50.892;5.740;2023-06-22T05:52:36;55961.09;;;-142.21;95.00
5053;BME280;2545;50.892;5.740;2023-06-22T05:55:02;55959.16;;;-142.21;94.85
5053;BME280;2545;50.892;5.740;2023-06-22T05:57:27;55990.53;;;-142.21;93.67
5053;BME280;2545;50.892;5.740;2023-06-22T05:59:53;55994.44;;;-142.21;91.79
5053;BME280;2545;50.892;5.740;2023-06-22T06:02:19;55994.44;;;-142.21;92.03
5053;BME280;2545;50.892;5.740;2023-06-22T06:04:44;56004.25;;;-142.21;91.01
5053;BME280;2545;50.892;5.740;2023-06-22T06:07:10;55996.41;;;-142.21;90.79
5053;BME280;2545;50.892;5.740;2023-06-22T06:09:35;56008.16;;;-142.21;90.35
5053;BME280;2545;50.892;5.740;2023-06-22T06:12:00;55998.38;;;-142.21;89.85
5053;BME280;2545;50.892;5.740;2023-06-22T06:14:28;55994.44;;;-142.21;90.68
5053;BME280;2545;50.892;5.740;2023-06-22T06:16:53;55986.59;;;-142.21;89.01
5053;BME280;2545;50.892;5.740;2023-06-22T06:19:19;55941.50;;;-142.21;87.22
5053;BME280;2545;50.892;5.740;2023-06-22T06:21:44;56006.22;;;-142.21;85.76
5053;BME280;2545;50.892;5.740;2023-06-22T06:24:10;56000.31;;;-142.21;85.30
5053;BME280;2545;50.892;5.740;2023-06-22T06:26:35;55968.94;;;-142.21;83.67
5053;BME280;2545;50.892;5.740;2023-06-22T06:29:01;55963.06;;;-142.21;82.85
5053;BME280;2545;50.892;5.740;2023-06-22T06:31:27;55978.75;;;-142.21;83.14
5053;BME280;2545;50.892;5.740;2023-06-22T06:33:54;55982.69;;;-142.21;81.94
5053;BME280;2545;50.892;5.740;2023-06-22T06:36:20;55929.75;;;-142.21;81.52
5053;BME280;2545;50.892;5.740;2023-06-22T06:38:45;55963.06;;;-142.21;81.56
5053;BME280;2545;50.892;5.740;2023-06-22T06:41:13;55976.78;;;-142.21;79.71
5053;BME280;2545;50.892;5.740;2023-06-22T06:43:38;55968.94;;;-142.21;80.60
5053;BME280;2545;50.892;5.740;2023-06-22T06:46:04;55998.38;;;-142.21;80.35
5053;BME280;2545;50.892;5.740;2023-06-22T06:48:29;55951.31;;;-142.21;80.16
5053;BME280;2545;50.892;5.740;2023-06-22T06:50:54;55947.38;;;-142.21;79.02
5053;BME280;2545;50.892;5.740;2023-06-22T06:53:20;55978.75;;;-142.21;77.65
5053;BME280;2545;50.892;5.740;2023-06-22T06:55:45;55963.06;;;-142.21;76.56
5053;BME280;2545;50.892;5.740;2023-06-22T06:58:10;55953.25;;;-142.21;75.18
5053;BME280;2545;50.892;5.740;2023-06-22T07:00:38;55935.63;;;-142.21;72.79
5053;BME280;2545;50.892;5.740;2023-06-22T07:03:04;55935.63;;;-142.21;72.74
5053;BME280;2545;50.892;5.740;2023-06-22T07:05:29;55935.63;;;-142.21;69.16
5053;BME280;2545;50.892;5.740;2023-06-22T07:07:54;55910.13;;;-142.21;65.74
5053;BME280;2545;50.892;5.740;2023-06-22T07:10:20;55904.25;;;-142.21;64.02
5053;BME280;2545;50.892;5.740;2023-06-22T07:12:46;55951.31;;;-142.21;63.37
5053;BME280;2545;50.892;5.740;2023-06-22T07:15:11;55925.81;;;-142.21;63.12
5053;BME280;2545;50.892;5.740;2023-06-22T07:17:38;55896.41;;;-142.21;61.85
5053;BME280;2545;50.892;5.740;2023-06-22T07:20:06;55919.94;;;-142.21;59.62
5053;BME280;2545;50.892;5.740;2023-06-22T07:22:35;55935.63;;;-142.21;59.87
5053;BME280;2545;50.892;5.740;2023-06-22T07:25:00;55919.94;;;-142.21;59.40
5053;BME280;2545;50.892;5.740;2023-06-22T07:27:26;55943.47;;;-142.21;59.65
5053;BME280;2545;50.892;5.740;2023-06-22T07:29:51;55919.94;;;-142.21;58.03
5053;BME280;2545;50.892;5.740;2023-06-22T07:32:17;55916.00;;;-142.21;57.85
5053;BME280;2545;50.892;5.740;2023-06-22T07:34:42;55906.22;;;-142.21;57.22
5053;BME280;2545;50.892;5.740;2023-06-22T07:37:08;55935.63;;;-142.21;57.31
5053;BME280;2545;50.892;5.740;2023-06-22T07:39:33;55902.28;;;-142.21;56.15
5053;BME280;2545;50.892;5.740;2023-06-22T07:41:59;55916.00;;;-142.21;55.54
5053;BME280;2545;50.892;5.740;2023-06-22T07:44:25;55888.56;;;-142.21;55.95
5053;BME280;2545;50.892;5.740;2023-06-22T07:46:50;55943.47;;;-142.21;55.54
5053;BME280;2545;50.892;5.740;2023-06-22T07:49:17;55917.97;;;-142.21;55.06
5053;BME280;2545;50.892;5.740;2023-06-22T07:51:42;55872.88;;;-142.21;55.31
5053;BME280;2545;50.892;5.740;2023-06-22T07:54:09;55912.09;;;-142.21;53.95
5053;BME280;2545;50.892;5.740;2023-06-22T07:56:36;55886.59;;;-142.21;53.13
5053;BME280;2545;50.892;5.740;2023-06-22T07:59:01;55892.47;;;-142.21;52.32
5053;BME280;2545;50.892;5.740;2023-06-22T08:01:29;55894.44;;;-142.21;52.29
5053;BME280;2545;50.892;5.740;2023-06-22T08:03:54;55904.25;;;-142.21;52.22
5053;BME280;2545;50.892;5.740;2023-06-22T08:06:19;55855.22;;;-142.21;52.25
5053;BME280;2545;50.892;5.740;2023-06-22T08:08:45;55947.38;;;-142.21;52.72
5053;BME280;2545;50.892;5.740;2023-06-22T08:11:13;55849.34;;;-142.21;52.71
5053;BME280;2545;50.892;5.740;2023-06-22T08:13:38;55896.41;;;-142.21;52.75
5053;BME280;2545;50.892;5.740;2023-06-22T08:16:04;55878.75;;;-142.21;52.32
5053;BME280;2545;50.892;5.740;2023-06-22T08:18:29;55929.75;;;-142.21;53.06
5053;BME280;2545;50.892;5.740;2023-06-22T08:20:54;55894.44;;;-142.21;52.48
5053;BME280;2545;50.892;5.740;2023-06-22T08:23:20;55906.22;;;-142.21;52.66
5053;BME280;2545;50.892;5.740;2023-06-22T08:25:45;55872.88;;;-142.21;52.72
5053;BME280;2545;50.892;5.740;2023-06-22T08:28:11;55912.09;;;-142.21;51.73
5053;BME280;2545;50.892;5.740;2023-06-22T08:30:36;55935.63;;;-142.21;52.36
5053;BME280;2545;50.892;5.740;2023-06-22T08:33:02;55882.69;;;-142.21;52.07
5053;BME280;2545;50.892;5.740;2023-06-22T08:35:27;55872.88;;;-142.21;52.18
5053;BME280;2545;50.892;5.740;2023-06-22T08:37:54;55900.31;;;-142.21;51.95
5053;BME280;2545;50.892;5.740;2023-06-22T08:40:22;55861.09;;;-142.21;52.19
5053;BME280;2545;50.892;5.740;2023-06-22T08:42:48;55892.47;;;-142.21;52.60
5053;BME280;2545;50.892;5.740;2023-06-22T08:45:14;55902.28;;;-142.21;52.67
5053;BME280;2545;50.892;5.740;2023-06-22T08:47:40;55882.69;;;-142.21;52.33
5053;BME280;2545;50.892;5.740;2023-06-22T08:50:07;55888.56;;;-142.21;50.66
5053;BME280;2545;50.892;5.740;2023-06-22T08:52:33;55872.88;;;-142.21;51.78
5053;BME280;2545;50.892;5.740;2023-06-22T08:54:59;55906.22;;;-142.21;52.76
5053;BME280;2545;50.892;5.740;2023-06-22T08:57:24;55868.94;;;-142.21;52.66
5053;BME280;2545;50.892;5.740;2023-06-22T08:59:50;55868.94;;;-142.21;52.75
5053;BME280;2545;50.892;5.740;2023-06-22T09:02:18;55908.16;;;-142.21;52.02
5053;BME280;2545;50.892;5.740;2023-06-22T09:04:45;55859.16;;;-142.21;52.25
5053;BME280;2545;50.892;5.740;2023-06-22T09:07:10;55900.31;;;-142.21;52.14
5053;BME280;2545;50.892;5.740;2023-06-22T09:09:36;55863.06;;;-142.21;52.15
5053;BME280;2545;50.892;5.740;2023-06-22T09:12:02;55878.75;;;-142.21;51.89
5053;BME280;2545;50.892;5.740;2023-06-22T09:14:27;55853.28;;;-142.21;53.53
5053;BME280;2545;50.892;5.740;2023-06-22T09:16:53;55861.09;;;-142.21;54.33
5053;BME280;2545;50.892;5.740;2023-06-22T09:19:18;55890.53;;;-142.21;55.00
5053;BME280;2545;50.892;5.740;2023-06-22T09:21:43;55904.25;;;-142.21;56.08
5053;BME280;2545;50.892;5.740;2023-06-22T09:24:09;55906.22;;;-142.21;55.61
5053;BME280;2545;50.892;5.740;2023-06-22T09:26:34;55906.22;;;-142.21;55.51
5053;BME280;2545;50.892;5.740;2023-06-22T09:28:59;55906.22;;;-142.21;56.09
5053;BME280;2545;50.892;5.740;2023-06-22T09:31:25;55906.22;;;-142.21;56.42
5053;BME280;2545;50.892;5.740;2023-06-22T09:33:54;55884.63;;;-142.21;56.34
5053;BME280;2545;50.892;5.740;2023-06-22T09:36:20;55939.53;;;-142.21;55.56
5053;BME280;2545;50.892;5.740;2023-06-22T09:38:47;55904.25;;;-142.21;56.26
5053;BME280;2545;50.892;5.740;2023-06-22T09:41:12;55900.31;;;-142.21;56.83
5053;BME280;2545;50.892;5.740;2023-06-22T09:43:38;55896.41;;;-142.21;57.59
5053;BME280;2545;50.892;5.740;2023-06-22T09:46:03;55914.06;;;-142.21;57.53
5053;BME280;2545;50.892;5.740;2023-06-22T09:48:29;55890.53;;;-142.21;57.55
5053;BME280;2545;50.892;5.740;2023-06-22T09:50:55;55917.97;;;-142.21;59.13
5053;BME280;2545;50.892;5.740;2023-06-22T09:53:20;55939.53;;;-142.21;59.44
5053;BME280;2545;50.892;5.740;2023-06-22T09:55:46;55908.16;;;-142.21;61.91
5053;BME280;2545;50.892;5.740;2023-06-22T09:58:12;55929.75;;;-142.21;62.04
5053;BME280;2545;50.892;5.740;2023-06-22T10:00:37;55935.63;;;-142.21;61.99
5053;BME280;2545;50.892;5.740;2023-06-22T10:03:02;55945.41;;;-142.21;62.97
5053;BME280;2545;50.892;5.740;2023-06-22T10:05:28;55917.97;;;-142.21;63.24
5053;BME280;2545;50.892;5.740;2023-06-22T10:07:53;55912.09;;;-142.21;68.76
5053;BME280;2545;50.892;5.740;2023-06-22T10:10:18;55886.59;;;-142.21;68.83
5053;BME280;2545;50.892;5.740;2023-06-22T10:12:47;55921.91;;;-142.21;71.24
5053;BME280;2545;50.892;5.740;2023-06-22T10:15:13;55937.56;;;-142.21;74.86
5053;BME280;2545;50.892;5.740;2023-06-22T10:17:38;55925.81;;;-142.21;79.33
5053;BME280;2545;50.892;5.740;2023-06-22T10:20:05;55943.47;;;-142.21;80.03
5053;BME280;2545;50.892;5.740;2023-06-22T10:22:38;55963.06;;;-142.21;81.30
5053;BME280;2545;50.892;5.740;2023-06-22T10:25:03;55963.06;;;-142.21;84.81
5053;BME280;2545;50.892;5.740;2023-06-22T10:27:29;55953.25;;;-142.21;84.72
5053;BME280;2545;50.892;5.740;2023-06-22T10:29:54;55965.03;;;-142.21;88.26
5053;BME280;2545;50.892;5.740;2023-06-22T10:32:19;55951.31;;;-142.21;90.74
5053;BME280;2545;50.892;5.740;2023-06-22T10:34:45;55949.34;;;-142.21;96.11
5053;BME280;2545;50.892;5.740;2023-06-22T10:37:10;56000.31;;;-142.21;95.29
5053;BME280;2545;50.892;5.740;2023-06-22T10:39:35;55970.91;;;-142.21;96.48
5053;BME280;2545;50.892;5.740;2023-06-22T10:42:01;55984.63;;;-142.21;100.00
5053;BME280;2545;50.892;5.740;2023-06-22T10:44:26;55994.44;;;-142.21;100.00
5053;BME280;2545;50.892;5.740;2023-06-22T10:46:51;55978.75;;;-142.21;98.50
5053;BME280;2545;50.892;5.740;2023-06-22T10:49:17;56025.81;;;-142.21;97.25
5053;BME280;2545;50.892;5.740;2023-06-22T10:51:42;55941.50;;;-142.21;93.04
5053;BME280;2545;50.892;5.740;2023-06-22T10:54:07;55955.22;;;-142.21;89.35
5053;BME280;2545;50.892;5.740;2023-06-22T10:56:33;55931.69;;;-142.21;84.96
5053;BME280;2545;50.892;5.740;2023-06-22T10:58:59;55951.31;;;-142.21;77.55
5053;BME280;2545;50.892;5.740;2023-06-22T11:01:24;55857.19;;;-142.21;72.28
5053;BME280;2545;50.892;5.740;2023-06-22T11:03:49;55912.09;;;-142.21;68.50
5053;BME280;2545;50.892;5.740;2023-06-22T11:06:15;55951.31;;;-142.21;67.09
5053;BME280;2545;50.892;5.740;2023-06-22T11:08:44;55917.97;;;-142.21;67.26
5053;BME280;2545;50.892;5.740;2023-06-22T11:11:09;55904.25;;;-142.21;65.02
5053;BME280;2545;50.892;5.740;2023-06-22T11:13:34;55880.72;;;-142.21;64.06
5053;BME280;2545;50.892;5.740;2023-06-22T11:16:00;55917.97;;;-142.21;65.09
5053;BME280;2545;50.892;5.740;2023-06-22T11:18:25;55880.72;;;-142.21;64.86
5053;BME280;2545;50.892;5.740;2023-06-22T11:20:50;55912.09;;;-142.21;65.64
5053;BME280;2545;50.892;5.740;2023-06-22T11:23:16;55888.56;;;-142.21;63.75
5053;BME280;2545;50.892;5.740;2023-06-22T11:25:41;55961.09;;;-142.21;67.96
5053;BME280;2545;50.892;5.740;2023-06-22T11:28:07;55927.78;;;-142.21;66.18
5053;BME280;2545;50.892;5.740;2023-06-22T11:30:33;55963.06;;;-142.21;69.91
5053;BME280;2545;50.892;5.740;2023-06-22T11:32:59;55927.78;;;-142.21;69.66
5053;BME280;2545;50.892;5.740;2023-06-22T11:35:25;55929.75;;;-142.21;68.77
5053;BME280;2545;50.892;5.740;2023-06-22T11:37:50;55965.03;;;-142.21;69.93
5053;BME280;2545;50.892;5.740;2023-06-22T11:40:16;55919.94;;;-142.21;69.11
5053;BME280;2545;50.892;5.740;2023-06-22T11:42:42;55904.25;;;-142.21;69.64
5053;BME280;2545;50.892;5.740;2023-06-22T11:45:08;55921.91;;;-142.21;66.25
5053;BME280;2545;50.892;5.740;2023-06-22T11:47:33;55919.94;;;-142.21;68.77
5053;BME280;2545;50.892;5.740;2023-06-22T11:49:59;55951.31;;;-142.21;68.29
5053;BME280;2545;50.892;5.740;2023-06-22T11:52:24;55927.78;;;-142.21;69.30
5053;BME280;2545;50.892;5.740;2023-06-22T11:54:49;56037.56;;;-142.21;75.33
5053;BME280;2545;50.892;5.740;2023-06-22T11:57:15;55955.22;;;-142.21;75.67
5053;BME280;2545;50.892;5.740;2023-06-22T11:59:40;55986.59;;;-142.21;77.84
5053;BME280;2545;50.892;5.740;2023-06-22T12:02:05;55961.09;;;-142.21;79.98
5053;BME280;2545;50.892;5.740;2023-06-22T12:04:32;56017.97;;;-142.21;82.29
5053;BME280;2545;50.892;5.740;2023-06-22T12:06:58;55933.66;;;-142.21;82.83
5053;BME280;2545;50.892;5.740;2023-06-22T12:09:23;55986.59;;;-142.21;81.31
5053;BME280;2545;50.892;5.740;2023-06-22T12:11:49;56006.22;;;-142.21;83.96
5053;BME280;2545;50.892;5.740;2023-06-22T12:14:14;56008.16;;;-142.21;83.42
5053;BME280;2545;50.892;5.740;2023-06-22T12:16:39;55994.44;;;-142.21;84.77
5053;BME280;2545;50.892;5.740;2023-06-22T12:19:05;55994.44;;;-142.21;84.44
5053;BME280;2545;50.892;5.740;2023-06-22T12:21:30;55988.56;;;-142.21;83.65
5053;BME280;2545;50.892;5.740;2023-06-22T12:23:55;55980.72;;;-142.21;82.58
5053;BME280;2545;50.892;5.740;2023-06-22T12:26:21;55978.75;;;-142.21;76.82
5053;BME280;2545;50.892;5.740;2023-06-22T12:28:47;55957.19;;;-142.21;75.28
5053;BME280;2545;50.892;5.740;2023-06-22T12:31:12;55939.53;;;-142.21;75.52
5053;BME280;2545;50.892;5.740;2023-06-22T12:33:38;55982.69;;;-142.21;75.14
5053;BME280;2545;50.892;5.740;2023-06-22T12:36:03;55978.75;;;-142.21;75.09
5053;BME280;2545;50.892;5.740;2023-06-22T12:38:30;55951.31;;;-142.21;77.96
5053;BME280;2545;50.892;5.740;2023-06-22T12:40:55;56033.66;;;-142.21;80.76
5053;BME280;2545;50.892;5.740;2023-06-22T12:43:20;55908.16;;;-142.21;83.41
5053;BME280;2545;50.892;5.740;2023-06-22T12:45:46;56037.56;;;-142.21;85.71
5053;BME280;2545;50.892;5.740;2023-06-22T12:48:11;55998.38;;;-142.21;84.82
5053;BME280;2545;50.892;5.740;2023-06-22T12:50:38;55974.84;;;-142.21;84.85
5053;BME280;2545;50.892;5.740;2023-06-22T12:53:03;55996.41;;;-142.21;84.48
5053;BME280;2545;50.892;5.740;2023-06-22T12:55:29;56002.28;;;-142.21;84.32
5053;BME280;2545;50.892;5.740;2023-06-22T12:57:55;55957.19;;;-142.21;85.76
5053;BME280;2545;50.892;5.740;2023-06-22T13:00:20;55994.44;;;-142.21;87.04
5053;BME280;2545;50.892;5.740;2023-06-22T13:02:46;55998.38;;;-142.21;88.25